Time;durP1;ratioP1;P1;durP2;ratioP2;P2;SDS_P1;SDS_P2;PMS_P1;PMS_P2;Temp;Humidity;BMP_temperature;BMP_pressure;BME280_temperature;BME280_humidity;BME280_pressure;Samples;Min_cycle;Max_cycle;Signal;HPM_P1;HPM_P2
2022/02/15 00:02:09;;;;;;;;;;;;;;;;;;5049480;28;19959;-73
2022/02/15 00:04:36;;;;;;;;;;;;;;;;;;5046280;28;19960;-74
2022/02/15 00:07:02;;;;;;;;;;;;;;;;;;5046618;28;20428;-74
2022/02/15 00:09:28;;;;;;;;;;;;;;;;;;5042967;28;19948;-74
2022/02/15 00:11:54;;;;;;;;;;;;;;;;;;5044821;28;19964;-73
2022/02/15 00:14:21;;;;;;;;;;;;;;;;;;5045396;28;19959;-73
2022/02/15 00:16:48;;;;;;;;;;;;;;;;;;5044738;28;20544;-74
2022/02/15 00:19:14;;;;;;;;;;;;;;;;;;5048052;28;20448;-74
2022/02/15 00:21:40;;;;;;;;;;;;;;;;;;5040335;28;19956;-74
2022/02/15 00:24:06;;;;;;;;;;;;;;;;;;5039537;28;20516;-74
2022/02/15 00:26:32;;;;;;;;;;;;;;;;;;5043082;28;19952;-74
2022/02/15 00:29:01;;;;;;;;;;;;;;;;;;5046275;28;19945;-74
2022/02/15 00:31:27;;;;;;;;;;;;;;;;;;5040510;28;19964;-72
2022/02/15 00:33:53;;;;;;;;;;;;;;;;;;5042964;28;19978;-73
2022/02/15 00:36:19;;;;;;;;;;;;;;;;;;5042739;28;20312;-73
2022/02/15 00:38:46;;;;;;;;;;;;;;;;;;5041785;28;19964;-74
2022/02/15 00:41:12;;;;;;;;;;;;;;;;;;5046149;28;20345;-74
2022/02/15 00:43:38;;;;;;;;;;;;;;;;;;5026439;28;19963;-73
2022/02/15 00:46:04;;;;;;;;;;;;;;;;;;5039673;28;20688;-73
2022/02/15 00:48:30;;;;;;;;;;;;;;;;;;5038028;28;20387;-73
2022/02/15 00:50:57;;;;;;;;;;;;;;;;;;5047164;28;19955;-72
2022/02/15 00:53:23;;;;;;;;;;;;;;;;;;5041698;28;19952;-72
2022/02/15 00:55:49;;;;;;;;;;;;;;;;;;5041022;28;20684;-73
2022/02/15 00:58:15;;;;;;;;;;;;;;;;;;5026069;28;19963;-72
2022/02/15 01:00:41;;;;;;;;;;;;;;;;;;5043555;28;19964;-72
2022/02/15 01:03:07;;;;;;;;;;;;;;;;;;5047466;28;19956;-72
2022/02/15 01:05:34;;;;;;;;;;;;;;;;;;5041922;28;19925;-72
2022/02/15 01:08:00;;;;;;;;;;;;;;;;;;5045207;28;19956;-73
2022/02/15 01:10:26;;;;;;;;;;;;;;;;;;5041771;28;19956;-72
2022/02/15 01:12:53;;;;;;;;;;;;;;;;;;5042362;28;19971;-72
2022/02/15 01:15:19;;;;;;;;;;;;;;;;;;5042074;28;19964;-72
2022/02/15 01:17:46;;;;;;;;;;;;;;;;;;5040694;28;20019;-73
2022/02/15 01:20:12;;;;;;;;;;;;;;;;;;5016012;28;19928;-72
2022/02/15 01:22:38;;;;;;;;;;;;;;;;;;5042756;28;19971;-73
2022/02/15 01:25:04;;;;;;;;;;;;;;;;;;5043997;28;19959;-73
2022/02/15 01:27:30;;;;;;;;;;;;;;;;;;5038733;28;19994;-73
2022/02/15 01:29:56;;;;;;;;;;;;;;;;;;5043226;28;19960;-73
2022/02/15 01:32:23;;;;;;;;;;;;;;;;;;5043184;28;20361;-74
2022/02/15 01:34:49;;;;;;;;;;;;;;;;;;5043425;28;20001;-73
2022/02/15 01:37:15;;;;;;;;;;;;;;;;;;5040233;28;20406;-73
2022/02/15 01:39:41;;;;;;;;;;;;;;;;;;5039113;28;20351;-73
2022/02/15 01:42:07;;;;;;;;;;;;;;;;;;5034137;28;20439;-73
2022/02/15 01:44:35;;;;;;;;;;;;;;;;;;5042644;28;19941;-74
2022/02/15 01:47:01;;;;;;;;;;;;;;;;;;5043359;28;19979;-74
2022/02/15 01:49:27;;;;;;;;;;;;;;;;;;5043030;28;20014;-74
2022/02/15 01:51:53;;;;;;;;;;;;;;;;;;5044925;28;19952;-73
2022/02/15 01:54:20;;;;;;;;;;;;;;;;;;5039394;28;20349;-73
2022/02/15 01:56:46;;;;;;;;;;;;;;;;;;5041902;28;19968;-73
2022/02/15 01:59:12;;;;;;;;;;;;;;;;;;5045370;28;19955;-73
2022/02/15 02:01:38;;;;;;;;;;;;;;;;;;5043350;28;19941;-74
2022/02/15 02:04:04;;;;;;;;;;;;;;;;;;5042211;28;20370;-73
2022/02/15 02:06:31;;;;;;;;;;;;;;;;;;5042364;28;20462;-73
2022/02/15 02:08:57;;;;;;;;;;;;;;;;;;5042720;28;19955;-73
2022/02/15 02:11:23;;;;;;;;;;;;;;;;;;5039618;28;19971;-73
2022/02/15 02:13:49;;;;;;;;;;;;;;;;;;5042948;28;20023;-74
2022/02/15 02:16:15;;;;;;;;;;;;;;;;;;5039714;28;19956;-74
2022/02/15 02:18:41;;;;;;;;;;;;;;;;;;5040926;28;20416;-74
2022/02/15 02:21:08;;;;;;;;;;;;;;;;;;5042748;28;20009;-73
2022/02/15 02:23:34;;;;;;;;;;;;;;;;;;5043965;28;20375;-74
2022/02/15 02:26:00;;;;;;;;;;;;;;;;;;5052735;28;19968;-74
2022/02/15 02:28:26;;;;;;;;;;;;;;;;;;5047626;28;19948;-74
2022/02/15 02:30:53;;;;;;;;;;;;;;;;;;5043633;28;19917;-73
2022/02/15 02:33:19;;;;;;;;;;;;;;;;;;5034936;28;19956;-73
2022/02/15 02:35:45;;;;;;;;;;;;;;;;;;5046084;28;19967;-72
2022/02/15 02:38:11;;;;;;;;;;;;;;;;;;5044249;28;19976;-73
2022/02/15 02:40:37;;;;;;;;;;;;;;;;;;5043889;28;19952;-72
2022/02/15 02:43:04;;;;;;;;;;;;;;;;;;5048086;28;19959;-72
2022/02/15 02:45:30;;;;;;;;;;;;;;;;;;5043142;28;19960;-73
2022/02/15 02:47:56;;;;;;;;;;;;;;;;;;5047153;28;19971;-73
2022/02/15 02:50:24;;;;;;;;;;;;;;;;;;5042817;28;20356;-73
2022/02/15 02:52:50;;;;;;;;;;;;;;;;;;5047785;28;20009;-72
2022/02/15 02:55:16;;;;;;;;;;;;;;;;;;5046699;28;19960;-73
2022/02/15 02:57:43;;;;;;;;;;;;;;;;;;5048195;28;19963;-74
2022/02/15 03:00:09;;;;;;;;;;;;;;;;;;5042630;28;19948;-74
2022/02/15 03:02:35;;;;;;;;;;;;;;;;;;5046621;28;20542;-74
2022/02/15 03:05:01;;;;;;;;;;;;;;;;;;5046817;28;19975;-74
2022/02/15 03:07:27;;;;;;;;;;;;;;;;;;5045659;28;20752;-74
2022/02/15 03:09:54;;;;;;;;;;;;;;;;;;5044869;28;19956;-74
2022/02/15 03:12:20;;;;;;;;;;;;;;;;;;5045088;28;20359;-73
2022/02/15 03:14:47;;;;;;;;;;;;;;;;;;5042033;28;19964;-73
2022/02/15 03:17:14;;;;;;;;;;;;;;;;;;5043373;28;19948;-72
2022/02/15 03:19:40;;;;;;;;;;;;;;;;;;5043564;28;19960;-73
2022/02/15 03:22:06;;;;;;;;;;;;;;;;;;5048679;28;20696;-73
2022/02/15 03:24:36;;;;;;;;;;;;;;;;;;5039475;28;19976;-73
2022/02/15 03:27:02;;;;;;;;;;;;;;;;;;5054334;28;19967;-74
2022/02/15 03:29:28;;;;;;;;;;;;;;;;;;5043323;28;20403;-74
2022/02/15 03:31:54;;;;;;;;;;;;;;;;;;5044475;28;19968;-73
2022/02/15 03:34:21;;;;;;;;;;;;;;;;;;5046179;28;20019;-73
2022/02/15 03:36:47;;;;;;;;;;;;;;;;;;5030557;28;19956;-74
2022/02/15 03:39:13;;;;;;;;;;;;;;;;;;5050468;28;20333;-73
2022/02/15 03:44:24;;;;;;;;;;;;;;;;;;5044540;28;19921;-74
2022/02/15 03:46:50;;;;;;;;;;;;;;;;;;5044265;28;20362;-73
2022/02/15 03:49:16;;;;;;;;;;;;;;;;;;5045671;28;20451;-74
2022/02/15 03:51:43;;;;;;;;;;;;;;;;;;5045996;28;20026;-74
2022/02/15 03:54:09;;;;;;;;;;;;;;;;;;5042411;28;19953;-73
2022/02/15 03:56:35;;;;;;;;;;;;;;;;;;5040148;28;19959;-73
2022/02/15 03:59:01;;;;;;;;;;;;;;;;;;5046676;28;19964;-73
2022/02/15 04:01:27;;;;;;;;;;;;;;;;;;5044767;28;20034;-73
2022/02/15 04:03:54;;;;;;;;;;;;;;;;;;5045314;28;19956;-73
2022/02/15 04:06:20;;;;;;;;;;;;;;;;;;5044895;28;19944;-73
2022/02/15 04:08:46;;;;;;;;;;;;;;;;;;5031624;28;20390;-73
2022/02/15 04:11:12;;;;;;;;;;;;;;;;;;5040939;28;19957;-72
2022/02/15 04:13:38;;;;;;;;;;;;;;;;;;5045164;28;20287;-72
2022/02/15 04:16:05;;;;;;;;;;;;;;;;;;5043963;28;19963;-72
2022/02/15 04:18:31;;;;;;;;;;;;;;;;;;5041516;28;20034;-72
2022/02/15 04:20:58;;;;;;;;;;;;;;;;;;5046166;28;19920;-73
2022/02/15 04:23:28;;;;;;;;;;;;;;;;;;5042479;28;19924;-71
2022/02/15 04:25:58;;;;;;;;;;;;;;;;;;5042965;28;19920;-72
2022/02/15 04:28:24;;;;;;;;;;;;;;;;;;5044956;28;20028;-71
2022/02/15 04:30:50;;;;;;;;;;;;;;;;;;5044997;28;20408;-72
2022/02/15 04:33:17;;;;;;;;;;;;;;;;;;5039712;28;19975;-72
2022/02/15 04:35:43;;;;;;;;;;;;;;;;;;5043300;28;20349;-72
2022/02/15 04:38:09;;;;;;;;;;;;;;;;;;5022021;28;20002;-71
2022/02/15 04:40:35;;;;;;;;;;;;;;;;;;5040707;28;20116;-72
2022/02/15 04:43:01;;;;;;;;;;;;;;;;;;5041462;28;19948;-72
2022/02/15 04:45:27;;;;;;;;;;;;;;;;;;5036788;28;20029;-72
2022/02/15 04:47:54;;;;;;;;;;;;;;;;;;5041897;28;19960;-72
2022/02/15 04:50:20;;;;;;;;;;;;;;;;;;5037700;28;20412;-73
2022/02/15 04:52:46;;;;;;;;;;;;;;;;;;5042027;28;19952;-72
2022/02/15 04:55:12;;;;;;;;;;;;;;;;;;5020477;28;19952;-72
2022/02/15 04:57:38;;;;;;;;;;;;;;;;;;5037149;28;20409;-73
2022/02/15 05:00:05;;;;;;;;;;;;;;;;;;5049366;28;20411;-72
2022/02/15 05:02:31;;;;;;;;;;;;;;;;;;5038196;28;19978;-72
2022/02/15 05:04:58;;;;;;;;;;;;;;;;;;5048357;28;20014;-73
2022/02/15 05:07:25;;;;;;;;;;;;;;;;;;5041711;28;19971;-73
2022/02/15 05:09:51;;;;;;;;;;;;;;;;;;5040138;28;19968;-73
2022/02/15 05:12:18;;;;;;;;;;;;;;;;;;5043637;28;20495;-73
2022/02/15 05:14:44;;;;;;;;;;;;;;;;;;5025321;28;19960;-73
2022/02/15 05:17:10;;;;;;;;;;;;;;;;;;5044492;28;20775;-73
2022/02/15 05:19:36;;;;;;;;;;;;;;;;;;5049788;28;19955;-74
2022/02/15 05:22:02;;;;;;;;;;;;;;;;;;5047981;28;19939;-73
2022/02/15 05:24:30;;;;;;;;;;;;;;;;;;5035692;28;19979;-73
2022/02/15 05:26:56;;;;;;;;;;;;;;;;;;5037978;28;19960;-72
2022/02/15 05:29:22;;;;;;;;;;;;;;;;;;5034112;28;20030;-72
2022/02/15 05:31:49;;;;;;;;;;;;;;;;;;5027114;28;19917;-72
2022/02/15 05:34:15;;;;;;;;;;;;;;;;;;5043836;28;19975;-73
2022/02/15 05:36:41;;;;;;;;;;;;;;;;;;5045575;28;21562;-73
2022/02/15 05:39:08;;;;;;;;;;;;;;;;;;5044679;28;19964;-73
2022/02/15 05:41:34;;;;;;;;;;;;;;;;;;5037556;28;20784;-73
2022/02/15 05:44:00;;;;;;;;;;;;;;;;;;5039709;28;19994;-73
2022/02/15 05:46:26;;;;;;;;;;;;;;;;;;5043192;28;19968;-74
2022/02/15 05:48:52;;;;;;;;;;;;;;;;;;5047501;28;19963;-74
2022/02/15 05:51:18;;;;;;;;;;;;;;;;;;5041287;28;20473;-74
2022/02/15 05:53:45;;;;;;;;;;;;;;;;;;5042044;28;19952;-74
2022/02/15 05:56:11;;;;;;;;;;;;;;;;;;5039553;28;19940;-73
2022/02/15 05:58:38;;;;;;;;;;;;;;;;;;5050364;28;20025;-73
2022/02/15 06:01:04;;;;;;;;;;;;;;;;;;5047815;28;19977;-72
2022/02/15 06:06:14;;;;;;;;;;;;;;;;;;5045085;28;19964;-72
2022/02/15 06:08:41;;;;;;;;;;;;;;;;;;5050443;28;19964;-73
2022/02/15 06:11:07;;;;;;;;;;;;;;;;;;5047293;28;20014;-72
2022/02/15 06:13:33;;;;;;;;;;;;;;;;;;5043747;28;20888;-72
2022/02/15 06:15:59;;;;;;;;;;;;;;;;;;5046366;28;19956;-72
2022/02/15 06:18:26;;;;;;;;;;;;;;;;;;5046839;28;19976;-72
2022/02/15 06:20:52;;;;;;;;;;;;;;;;;;5045358;28;19960;-72
2022/02/15 06:23:18;;;;;;;;;;;;;;;;;;5046706;28;20684;-72
2022/02/15 06:25:44;;;;;;;;;;;;;;;;;;5048119;28;19925;-72
2022/02/15 06:28:11;;;;;;;;;;;;;;;;;;5045817;28;20006;-72
2022/02/15 06:30:37;;;;;;;;;;;;;;;;;;5045775;28;20336;-72
2022/02/15 06:33:03;;;;;;;;;;;;;;;;;;5043222;28;19925;-73
2022/02/15 06:35:29;;;;;;;;;;;;;;;;;;5041580;28;21942;-72
2022/02/15 06:37:56;;;;;;;;;;;;;;;;;;5041201;28;19971;-73
2022/02/15 06:40:22;;;;;;;;;;;;;;;;;;5046265;28;19959;-72
2022/02/15 06:42:48;;;;;;;;;;;;;;;;;;5046356;28;19964;-72
2022/02/15 06:45:14;;;;;;;;;;;;;;;;;;5020384;28;19913;-73
2022/02/15 06:47:41;;;;;;;;;;;;;;;;;;5043352;28;19972;-72
2022/02/15 06:50:07;;;;;;;;;;;;;;;;;;5045581;28;19952;-73
2022/02/15 06:52:33;;;;;;;;;;;;;;;;;;5049970;28;19952;-73
2022/02/15 06:54:59;;;;;;;;;;;;;;;;;;5041045;28;19975;-72
2022/02/15 06:57:25;;;;;;;;;;;;;;;;;;5041053;28;19967;-72
2022/02/15 06:59:52;;;;;;;;;;;;;;;;;;5037913;28;19948;-73
2022/02/15 07:02:18;;;;;;;;;;;;;;;;;;5046779;28;20325;-72
2022/02/15 07:04:45;;;;;;;;;;;;;;;;;;5020739;28;19965;-72
2022/02/15 07:07:11;;;;;;;;;;;;;;;;;;5041108;28;19960;-73
2022/02/15 07:09:38;;;;;;;;;;;;;;;;;;5048348;28;19967;-73
2022/02/15 07:12:04;;;;;;;;;;;;;;;;;;5043222;28;20538;-73
2022/02/15 07:14:30;;;;;;;;;;;;;;;;;;5045896;28;19956;-73
2022/02/15 07:16:56;;;;;;;;;;;;;;;;;;5042388;28;20375;-72
2022/02/15 07:19:22;;;;;;;;;;;;;;;;;;5041125;28;19979;-74
2022/02/15 07:21:49;;;;;;;;;;;;;;;;;;5042814;28;19948;-74
2022/02/15 07:24:16;;;;;;;;;;;;;;;;;;5044687;28;20020;-73
2022/02/15 07:26:42;;;;;;;;;;;;;;;;;;5038708;28;19952;-72
2022/02/15 07:29:09;;;;;;;;;;;;;;;;;;5023486;28;20535;-72
2022/02/15 07:31:35;;;;;;;;;;;;;;;;;;5023683;28;19971;-73
2022/02/15 07:34:01;;;;;;;;;;;;;;;;;;5042848;28;19963;-73
2022/02/15 07:36:27;;;;;;;;;;;;;;;;;;5041595;28;19987;-73
2022/02/15 07:38:54;;;;;;;;;;;;;;;;;;5048040;28;19956;-74
2022/02/15 07:41:21;;;;;;;;;;;;;;;;;;5045794;28;20274;-72
2022/02/15 07:43:47;;;;;;;;;;;;;;;;;;5038277;28;19960;-73
2022/02/15 07:46:13;;;;;;;;;;;;;;;;;;5039528;28;19964;-73
2022/02/15 07:48:39;;;;;;;;;;;;;;;;;;5043006;28;19952;-73
2022/02/15 07:51:05;;;;;;;;;;;;;;;;;;5043670;28;20030;-73
2022/02/15 07:53:32;;;;;;;;;;;;;;;;;;5036530;28;19953;-72
2022/02/15 07:55:58;;;;;;;;;;;;;;;;;;5044855;28;19959;-72
2022/02/15 07:58:24;;;;;;;;;;;;;;;;;;5045554;28;19963;-73
2022/02/15 08:00:51;;;;;;;;;;;;;;;;;;5040166;28;19925;-72
2022/02/15 08:03:17;;;;;;;;;;;;;;;;;;5044110;28;19953;-72
2022/02/15 08:05:44;;;;;;;;;;;;;;;;;;5045085;28;20393;-72
2022/02/15 08:08:11;;;;;;;;;;;;;;;;;;5028493;28;19929;-71
2022/02/15 08:10:37;;;;;;;;;;;;;;;;;;5043716;28;19975;-73
2022/02/15 08:13:05;;;;;;;;;;;;;;;;;;5039323;28;19952;-72
2022/02/15 08:15:31;;;;;;;;;;;;;;;;;;5040008;28;19953;-72
2022/02/15 08:17:58;;;;;;;;;;;;;;;;;;5043255;28;20396;-73
2022/02/15 08:20:24;;;;;;;;;;;;;;;;;;5040925;28;20070;-72
2022/02/15 08:22:50;;;;;;;;;;;;;;;;;;5042561;28;19951;-72
2022/02/15 08:25:16;;;;;;;;;;;;;;;;;;5047099;28;19964;-72
2022/02/15 08:27:42;;;;;;;;;;;;;;;;;;5045043;28;19964;-73
2022/02/15 08:30:09;;;;;;;;;;;;;;;;;;5043692;28;19948;-72
2022/02/15 08:32:35;;;;;;;;;;;;;;;;;;5045270;28;19952;-73
2022/02/15 08:35:01;;;;;;;;;;;;;;;;;;5043273;28;19963;-73
2022/02/15 08:37:27;;;;;;;;;;;;;;;;;;5041788;28;20377;-73
2022/02/15 08:39:53;;;;;;;;;;;;;;;;;;5046839;28;20058;-73
2022/02/15 08:42:19;;;;;;;;;;;;;;;;;;5051535;28;19954;-73
2022/02/15 08:44:48;;;;;;;;;;;;;;;;;;5044370;28;19967;-72
2022/02/15 08:47:14;;;;;;;;;;;;;;;;;;5040585;28;19956;-73
2022/02/15 08:49:40;;;;;;;;;;;;;;;;;;5045160;28;19944;-72
2022/02/15 08:52:06;;;;;;;;;;;;;;;;;;5042479;28;20346;-73
2022/02/15 08:54:33;;;;;;;;;;;;;;;;;;5038342;28;20349;-73
2022/02/15 08:56:59;;;;;;;;;;;;;;;;;;5040622;28;19968;-73
2022/02/15 08:59:25;;;;;;;;;;;;;;;;;;5043157;28;20029;-72
2022/02/15 09:01:52;;;;;;;;;;;;;;;;;;5043159;28;19956;-73
2022/02/15 09:04:18;;;;;;;;;;;;;;;;;;5044012;28;19952;-73
2022/02/15 09:06:44;;;;;;;;;;;;;;;;;;5021235;28;19920;-73
2022/02/15 09:09:12;;;;;;;;;;;;;;;;;;5024555;28;19964;-73
2022/02/15 09:11:38;;;;;;;;;;;;;;;;;;5041420;28;20047;-73
2022/02/15 09:14:05;;;;;;;;;;;;;;;;;;5046763;28;19971;-73
2022/02/15 09:16:31;;;;;;;;;;;;;;;;;;5039712;28;20348;-73
2022/02/15 09:18:57;;;;;;;;;;;;;;;;;;5041910;28;20027;-73
2022/02/15 09:21:23;;;;;;;;;;;;;;;;;;5045241;28;20031;-73
2022/02/15 09:23:49;;;;;;;;;;;;;;;;;;5042936;28;20047;-73
2022/02/15 09:26:15;;;;;;;;;;;;;;;;;;5042446;28;19951;-73
2022/02/15 09:28:42;;;;;;;;;;;;;;;;;;5035678;28;19963;-73
2022/02/15 09:31:08;;;;;;;;;;;;;;;;;;5040938;28;20392;-73
2022/02/15 09:33:34;;;;;;;;;;;;;;;;;;5040991;28;19968;-73
2022/02/15 09:36:00;;;;;;;;;;;;;;;;;;5043541;28;19959;-74
2022/02/15 09:38:26;;;;;;;;;;;;;;;;;;5038906;28;19964;-73
2022/02/15 09:40:53;;;;;;;;;;;;;;;;;;5041761;28;19925;-73
2022/02/15 09:43:19;;;;;;;;;;;;;;;;;;5043604;28;19960;-73
2022/02/15 09:45:45;;;;;;;;;;;;;;;;;;5043673;28;20108;-73
2022/02/15 09:48:13;;;;;;;;;;;;;;;;;;5043819;28;19956;-73
2022/02/15 09:50:40;;;;;;;;;;;;;;;;;;5043986;28;19971;-73
2022/02/15 09:53:06;;;;;;;;;;;;;;;;;;5041252;28;20325;-74
2022/02/15 09:55:32;;;;;;;;;;;;;;;;;;5040505;28;19952;-72
2022/02/15 09:57:58;;;;;;;;;;;;;;;;;;5044117;28;19952;-73
2022/02/15 10:00:24;;;;;;;;;;;;;;;;;;5037825;28;19964;-72
2022/02/15 10:02:50;;;;;;;;;;;;;;;;;;5044025;28;19960;-73
2022/02/15 10:05:17;;;;;;;;;;;;;;;;;;5036037;28;20382;-72
2022/02/15 10:07:43;;;;;;;;;;;;;;;;;;5034063;28;20506;-72
2022/02/15 10:10:09;;;;;;;;;;;;;;;;;;5041827;28;20063;-72
2022/02/15 10:12:35;;;;;;;;;;;;;;;;;;5041308;28;19953;-73
2022/02/15 10:15:02;;;;;;;;;;;;;;;;;;5041434;28;19948;-73
2022/02/15 10:17:28;;;;;;;;;;;;;;;;;;5035320;28;19956;-72
2022/02/15 10:19:57;;;;;;;;;;;;;;;;;;5040523;28;19925;-72
2022/02/15 10:22:23;;;;;;;;;;;;;;;;;;5036741;28;19972;-72
2022/02/15 10:24:49;;;;;;;;;;;;;;;;;;5042356;28;19968;-72
2022/02/15 10:27:16;;;;;;;;;;;;;;;;;;5042314;28;19956;-73
2022/02/15 10:29:43;;;;;;;;;;;;;;;;;;5041299;28;19971;-72
2022/02/15 10:32:09;;;;;;;;;;;;;;;;;;5038028;28;20004;-72
2022/02/15 10:34:35;;;;;;;;;;;;;;;;;;5040514;28;20027;-73
2022/02/15 10:37:02;;;;;;;;;;;;;;;;;;5036131;28;19949;-73
2022/02/15 10:39:28;;;;;;;;;;;;;;;;;;5043826;28;19948;-73
2022/02/15 10:41:54;;;;;;;;;;;;;;;;;;5044043;28;19921;-73
2022/02/15 10:44:20;;;;;;;;;;;;;;;;;;5044629;28;20368;-73
2022/02/15 10:46:46;;;;;;;;;;;;;;;;;;5048396;28;19947;-73
2022/02/15 10:49:13;;;;;;;;;;;;;;;;;;5043686;28;19982;-74
2022/02/15 10:51:39;;;;;;;;;;;;;;;;;;5042693;28;19972;-74
2022/02/15 10:54:08;;;;;;;;;;;;;;;;;;5038166;28;19953;-73
2022/02/15 10:56:35;;;;;;;;;;;;;;;;;;5048291;28;20415;-74
2022/02/15 10:59:01;;;;;;;;;;;;;;;;;;5037897;28;19952;-74
2022/02/15 11:01:27;;;;;;;;;;;;;;;;;;5041677;28;19971;-73
2022/02/15 11:03:53;;;;;;;;;;;;;;;;;;5029124;28;19912;-74
2022/02/15 11:06:20;;;;;;;;;;;;;;;;;;5045056;28;19959;-74
2022/02/15 11:08:46;;;;;;;;;;;;;;;;;;5044188;28;19959;-74
2022/02/15 11:11:13;;;;;;;;;;;;;;;;;;5044881;28;20001;-73
2022/02/15 11:13:39;;;;;;;;;;;;;;;;;;5045509;28;20662;-73
2022/02/15 11:16:05;;;;;;;;;;;;;;;;;;5041707;28;19964;-74
2022/02/15 11:18:31;;;;;;;;;;;;;;;;;;5028705;28;20486;-73
2022/02/15 11:20:58;;;;;;;;;;;;;;;;;;5044380;28;19972;-73
2022/02/15 11:23:24;;;;;;;;;;;;;;;;;;5047444;28;19979;-73
2022/02/15 11:25:51;;;;;;;;;;;;;;;;;;5043207;28;19956;-73
2022/02/15 11:28:17;;;;;;;;;;;;;;;;;;5042496;28;20018;-74
2022/02/15 11:30:43;;;;;;;;;;;;;;;;;;5028865;28;20009;-73
2022/02/15 11:33:09;;;;;;;;;;;;;;;;;;5049156;28;19982;-73
2022/02/15 11:35:35;;;;;;;;;;;;;;;;;;5048967;28;19966;-73
2022/02/15 11:38:02;;;;;;;;;;;;;;;;;;5047490;28;19959;-73
2022/02/15 11:40:28;;;;;;;;;;;;;;;;;;5042280;28;19948;-73
2022/02/15 11:42:54;;;;;;;;;;;;;;;;;;5048847;28;20534;-73
2022/02/15 11:45:20;;;;;;;;;;;;;;;;;;5030291;28;19955;-73
2022/02/15 11:47:46;;;;;;;;;;;;;;;;;;5043436;28;20070;-73
2022/02/15 11:50:14;;;;;;;;;;;;;;;;;;5045378;28;19948;-74
2022/02/15 11:52:40;;;;;;;;;;;;;;;;;;5044823;28;19944;-73
2022/02/15 11:55:07;;;;;;;;;;;;;;;;;;5047183;28;19964;-73
2022/02/15 11:57:33;;;;;;;;;;;;;;;;;;5042032;28;19959;-74
2022/02/15 11:59:59;;;;;;;;;;;;;;;;;;5041584;28;19960;-73
2022/02/15 12:02:25;;;;;;;;;;;;;;;;;;5037167;28;19968;-74
2022/02/15 12:04:52;;;;;;;;;;;;;;;;;;5024822;28;20022;-74
2022/02/15 12:07:18;;;;;;;;;;;;;;;;;;5040207;28;19968;-73
2022/02/15 12:09:44;;;;;;;;;;;;;;;;;;5043274;28;19931;-73
2022/02/15 12:12:17;;;;;;;;;;;;;;;;;;5043918;28;19956;-73
2022/02/15 12:14:43;;;;;;;;;;;;;;;;;;5046766;28;19948;-73
2022/02/15 12:17:09;;;;;;;;;;;;;;;;;;5041970;28;19952;-72
2022/02/15 12:19:36;;;;;;;;;;;;;;;;;;5041261;28;20414;-73
2022/02/15 12:22:02;;;;;;;;;;;;;;;;;;5036204;28;19959;-73
2022/02/15 12:24:28;;;;;;;;;;;;;;;;;;5036834;28;19956;-73
2022/02/15 12:26:54;;;;;;;;;;;;;;;;;;5041132;28;19952;-72
2022/02/15 12:29:21;;;;;;;;;;;;;;;;;;5042419;28;19956;-74
2022/02/15 12:31:47;;;;;;;;;;;;;;;;;;5046247;28;19963;-74
2022/02/15 12:34:13;;;;;;;;;;;;;;;;;;5043532;28;19969;-74
2022/02/15 12:36:39;;;;;;;;;;;;;;;;;;5046791;28;19952;-74
2022/02/15 12:39:06;;;;;;;;;;;;;;;;;;5047074;28;19940;-74
2022/02/15 12:41:32;;;;;;;;;;;;;;;;;;5044165;28;19985;-74
2022/02/15 12:43:58;;;;;;;;;;;;;;;;;;5045239;28;20404;-74
2022/02/15 12:46:24;;;;;;;;;;;;;;;;;;5042137;28;19968;-74
2022/02/15 12:48:51;;;;;;;;;;;;;;;;;;5047378;28;20083;-74
2022/02/15 12:51:17;;;;;;;;;;;;;;;;;;5041843;28;19975;-73
2022/02/15 12:53:43;;;;;;;;;;;;;;;;;;5045065;28;19948;-74
2022/02/15 12:56:09;;;;;;;;;;;;;;;;;;5041887;28;20038;-74
2022/02/15 12:58:35;;;;;;;;;;;;;;;;;;5041999;28;22385;-74
2022/02/15 13:01:02;;;;;;;;;;;;;;;;;;5044095;28;19979;-74
2022/02/15 13:03:28;;;;;;;;;;;;;;;;;;5038844;28;19971;-75
2022/02/15 13:05:54;;;;;;;;;;;;;;;;;;5046750;28;19956;-75
2022/02/15 13:08:23;;;;;;;;;;;;;;;;;;5042391;28;20399;-75
2022/02/15 13:10:49;;;;;;;;;;;;;;;;;;5043848;28;19979;-75
2022/02/15 13:13:16;;;;;;;;;;;;;;;;;;5042911;28;20404;-74
2022/02/15 13:15:42;;;;;;;;;;;;;;;;;;5046977;28;19924;-74
2022/02/15 13:18:08;;;;;;;;;;;;;;;;;;5043646;28;19953;-75
2022/02/15 13:20:34;;;;;;;;;;;;;;;;;;5041923;28;19924;-76
2022/02/15 13:23:00;;;;;;;;;;;;;;;;;;5044891;28;19948;-76
2022/02/15 13:25:27;;;;;;;;;;;;;;;;;;5031845;28;19975;-76
2022/02/15 13:27:53;;;;;;;;;;;;;;;;;;5034844;28;19968;-74
2022/02/15 13:30:19;;;;;;;;;;;;;;;;;;5035791;28;20400;-74
2022/02/15 13:32:46;;;;;;;;;;;;;;;;;;5035637;28;19960;-74
2022/02/15 13:35:12;;;;;;;;;;;;;;;;;;5033709;28;19952;-75
2022/02/15 13:37:38;;;;;;;;;;;;;;;;;;5038186;28;20387;-73
2022/02/15 13:40:04;;;;;;;;;;;;;;;;;;5040365;28;19929;-75
2022/02/15 13:42:31;;;;;;;;;;;;;;;;;;5040903;28;19960;-75
2022/02/15 13:44:57;;;;;;;;;;;;;;;;;;5039487;28;19964;-75
2022/02/15 13:47:23;;;;;;;;;;;;;;;;;;5033121;28;19971;-76
2022/02/15 13:49:49;;;;;;;;;;;;;;;;;;5037991;28;19956;-75
2022/02/15 13:52:16;;;;;;;;;;;;;;;;;;5035499;28;19964;-75
2022/02/15 13:54:42;;;;;;;;;;;;;;;;;;5035016;28;19948;-76
2022/02/15 13:57:08;;;;;;;;;;;;;;;;;;5041174;28;19971;-76
2022/02/15 13:59:36;;;;;;;;;;;;;;;;;;5038384;28;19959;-77
2022/02/15 14:02:02;;;;;;;;;;;;;;;;;;5041737;28;19959;-78
2022/02/15 14:04:29;;;;;;;;;;;;;;;;;;5041814;28;20443;-77
2022/02/15 14:06:55;;;;;;;;;;;;;;;;;;5036202;28;20070;-77
2022/02/15 14:09:21;;;;;;;;;;;;;;;;;;5042714;28;20604;-77
2022/02/15 14:11:47;;;;;;;;;;;;;;;;;;5040362;28;20656;-77
2022/02/15 14:14:13;;;;;;;;;;;;;;;;;;5045468;28;20342;-77
2022/02/15 14:16:40;;;;;;;;;;;;;;;;;;5040334;28;19954;-76
2022/02/15 14:19:06;;;;;;;;;;;;;;;;;;5046292;28;19955;-76
2022/02/15 14:21:36;;;;;;;;;;;;;;;;;;5043348;28;19956;-76
2022/02/15 14:24:02;;;;;;;;;;;;;;;;;;5046191;28;19947;-76
2022/02/15 14:26:31;;;;;;;;;;;;;;;;;;5039424;28;19956;-76
2022/02/15 14:28:57;;;;;;;;;;;;;;;;;;5044056;28;20401;-76
2022/02/15 14:31:23;;;;;;;;;;;;;;;;;;5038761;28;19924;-76
2022/02/15 14:33:50;;;;;;;;;;;;;;;;;;5040489;28;20538;-75
2022/02/15 14:36:16;;;;;;;;;;;;;;;;;;5043711;28;19951;-74
2022/02/15 14:38:42;;;;;;;;;;;;;;;;;;5041546;28;20840;-76
2022/02/15 14:41:08;;;;;;;;;;;;;;;;;;5045933;28;19978;-77
2022/02/15 14:43:35;;;;;;;;;;;;;;;;;;5040897;28;20034;-78
2022/02/15 14:46:02;;;;;;;;;;;;;;;;;;5044510;28;19952;-78
2022/02/15 14:48:28;;;;;;;;;;;;;;;;;;5044101;28;19956;-78
2022/02/15 14:50:58;;;;;;;;;;;;;;;;;;5021173;28;19941;-79
2022/02/15 14:53:25;;;;;;;;;;;;;;;;;;5039447;28;20498;-79
2022/02/15 14:55:51;;;;;;;;;;;;;;;;;;5036098;28;19957;-78
2022/02/15 14:58:17;;;;;;;;;;;;;;;;;;5043621;28;19971;-77
2022/02/15 15:00:43;;;;;;;;;;;;;;;;;;5037833;28;19971;-78
2022/02/15 15:03:09;;;;;;;;;;;;;;;;;;5046795;28;19979;-78
2022/02/15 15:05:36;;;;;;;;;;;;;;;;;;5044117;28;20013;-78
2022/02/15 15:08:02;;;;;;;;;;;;;;;;;;5045372;28;20113;-78
2022/02/15 15:10:28;;;;;;;;;;;;;;;;;;5007233;28;20104;-78
2022/02/15 15:12:54;;;;;;;;;;;;;;;;;;5042909;28;19952;-77
2022/02/15 15:15:21;;;;;;;;;;;;;;;;;;5039453;28;19956;-77
2022/02/15 15:17:47;;;;;;;;;;;;;;;;;;5025208;28;20487;-77
2022/02/15 15:20:13;;;;;;;;;;;;;;;;;;5044087;28;19967;-77
2022/02/15 15:22:39;;;;;;;;;;;;;;;;;;5044303;28;20351;-78
2022/02/15 15:25:06;;;;;;;;;;;;;;;;;;5036056;28;20484;-77
2022/02/15 15:27:33;;;;;;;;;;;;;;;;;;5044620;28;19975;-75
2022/02/15 15:29:59;;;;;;;;;;;;;;;;;;5043078;28;20656;-75
2022/02/15 15:32:29;;;;;;;;;;;;;;;;;;5038221;28;19960;-75
2022/02/15 15:34:55;;;;;;;;;;;;;;;;;;5039424;28;19956;-77
2022/02/15 15:37:21;;;;;;;;;;;;;;;;;;5033440;28;20337;-76
2022/02/15 15:39:48;;;;;;;;;;;;;;;;;;5046027;28;19944;-76
2022/02/15 15:42:14;;;;;;;;;;;;;;;;;;5047040;28;19944;-76
2022/02/15 15:44:40;;;;;;;;;;;;;;;;;;5027629;28;20552;-75
2022/02/15 15:47:07;;;;;;;;;;;;;;;;;;5046787;28;19952;-76
2022/02/15 15:49:34;;;;;;;;;;;;;;;;;;5042110;28;20454;-76
2022/02/15 15:52:00;;;;;;;;;;;;;;;;;;5041157;28;19952;-77
2022/02/15 15:54:26;;;;;;;;;;;;;;;;;;5045589;28;19964;-79
2022/02/15 15:56:52;;;;;;;;;;;;;;;;;;5043107;28;19917;-77
2022/02/15 15:59:18;;;;;;;;;;;;;;;;;;5039478;28;19956;-76
2022/02/15 16:01:45;;;;;;;;;;;;;;;;;;5039653;28;19968;-77
2022/02/15 16:04:14;;;;;;;;;;;;;;;;;;5034935;28;19980;-76
2022/02/15 16:06:45;;;;;;;;;;;;;;;;;;5024430;28;19998;-76
2022/02/15 16:09:11;;;;;;;;;;;;;;;;;;5023652;28;20451;-75
2022/02/15 16:11:38;;;;;;;;;;;;;;;;;;5041737;28;19952;-76
2022/02/15 16:14:04;;;;;;;;;;;;;;;;;;5036829;28;19956;-77
2022/02/15 16:16:30;;;;;;;;;;;;;;;;;;5037408;28;20012;-72
2022/02/15 16:18:57;;;;;;;;;;;;;;;;;;5019950;28;20440;-77
2022/02/15 16:21:23;;;;;;;;;;;;;;;;;;5039179;28;19944;-77
2022/02/15 16:23:49;;;;;;;;;;;;;;;;;;5044373;28;19957;-76
2022/02/15 16:26:15;;;;;;;;;;;;;;;;;;5049870;28;19956;-77
2022/02/15 16:28:44;;;;;;;;;;;;;;;;;;5028176;28;19976;-76
2022/02/15 16:31:10;;;;;;;;;;;;;;;;;;5046841;28;20364;-76
2022/02/15 16:33:37;;;;;;;;;;;;;;;;;;5045535;28;19991;-76
2022/02/15 16:36:03;;;;;;;;;;;;;;;;;;5046131;28;19959;-79
2022/02/15 16:38:30;;;;;;;;;;;;;;;;;;5044178;28;20418;-78
2022/02/15 16:40:57;;;;;;;;;;;;;;;;;;5042080;28;20396;-79
2022/02/15 16:43:23;;;;;;;;;;;;;;;;;;5044613;28;19940;-80
2022/02/15 16:45:49;;;;;;;;;;;;;;;;;;5037421;28;20707;-71